sensor_id;sensor_type;location;lat;lon;timestamp;pressure;altitude;pressure_sealevel;temperature;humidity
29197;BME280;62796;42.654;23.316;2023-05-03T00:02:07;94890.41;;;13.93;35.71
29197;BME280;62796;42.654;23.316;2023-05-03T00:04:32;94879.69;;;13.80;35.87
29197;BME280;62796;42.654;23.316;2023-05-03T00:06:58;94872.63;;;13.79;36.03
29197;BME280;62796;42.654;23.316;2023-05-03T00:09:23;94884.00;;;13.81;35.76
29197;BME280;62796;42.654;23.316;2023-05-03T00:11:49;94887.34;;;13.85;35.60
29197;BME280;62796;42.654;23.316;2023-05-03T00:14:15;94890.06;;;13.80;35.71
29197;BME280;62796;42.654;23.316;2023-05-03T00:16:40;94903.94;;;13.69;35.90
29197;BME280;62796;42.654;23.316;2023-05-03T00:19:06;94896.09;;;13.67;35.91
29197;BME280;62796;42.654;23.316;2023-05-03T00:21:31;94902.13;;;13.66;35.86
29197;BME280;62796;42.654;23.316;2023-05-03T00:23:57;94895.28;;;13.61;36.00
29197;BME280;62796;42.654;23.316;2023-05-03T00:26:23;94893.47;;;13.53;36.16
29197;BME280;62796;42.654;23.316;2023-05-03T00:28:48;94901.75;;;13.47;36.26
29197;BME280;62796;42.654;23.316;2023-05-03T00:31:14;94880.78;;;13.46;36.26
29197;BME280;62796;42.654;23.316;2023-05-03T00:33:40;94910.84;;;13.42;36.55
29197;BME280;62796;42.654;23.316;2023-05-03T00:36:10;94897.91;;;13.39;36.60
29197;BME280;62796;42.654;23.316;2023-05-03T00:38:36;94895.13;;;13.39;36.62
29197;BME280;62796;42.654;23.316;2023-05-03T00:41:02;94886.22;;;13.29;36.71
29197;BME280;62796;42.654;23.316;2023-05-03T00:43:29;94895.06;;;13.28;36.57
29197;BME280;62796;42.654;23.316;2023-05-03T00:45:55;94892.47;;;13.19;36.49
29197;BME280;62796;42.654;23.316;2023-05-03T00:48:21;94867.50;;;12.99;36.91
29197;BME280;62796;42.654;23.316;2023-05-03T00:50:46;94903.38;;;13.22;36.87
29197;BME280;62796;42.654;23.316;2023-05-03T00:53:13;94898.56;;;13.23;36.66
29197;BME280;62796;42.654;23.316;2023-05-03T00:55:39;94887.63;;;13.14;36.32
29197;BME280;62796;42.654;23.316;2023-05-03T00:58:05;94900.81;;;13.19;36.52
29197;BME280;62796;42.654;23.316;2023-05-03T01:00:31;94893.19;;;13.14;36.26
29197;BME280;62796;42.654;23.316;2023-05-03T01:02:57;94893.88;;;13.09;36.42
29197;BME280;62796;42.654;23.316;2023-05-03T01:05:24;94889.75;;;12.99;36.43
29197;BME280;62796;42.654;23.316;2023-05-03T01:10:55;94875.84;;;12.99;36.56
29197;BME280;62796;42.654;23.316;2023-05-03T01:18:49;94857.81;;;12.89;36.77
29197;BME280;62796;42.654;23.316;2023-05-03T01:21:18;94856.50;;;12.84;36.86
29197;BME280;62796;42.654;23.316;2023-05-03T01:23:59;94854.13;;;12.71;36.97
29197;BME280;62796;42.654;23.316;2023-05-03T01:26:28;94855.59;;;12.67;37.33
29197;BME280;62796;42.654;23.316;2023-05-03T01:28:54;94858.69;;;12.74;37.26
29197;BME280;62796;42.654;23.316;2023-05-03T01:31:32;94868.72;;;12.66;37.43
29197;BME280;62796;42.654;23.316;2023-05-03T01:34:30;94863.78;;;12.82;37.45
29197;BME280;62796;42.654;23.316;2023-05-03T01:36:58;94859.56;;;12.86;37.14
29197;BME280;62796;42.654;23.316;2023-05-03T01:39:37;94855.75;;;12.84;37.06
29197;BME280;62796;42.654;23.316;2023-05-03T01:42:06;94860.31;;;12.87;36.97
29197;BME280;62796;42.654;23.316;2023-05-03T01:44:32;94866.06;;;12.77;36.81
29197;BME280;62796;42.654;23.316;2023-05-03T01:46:58;94852.69;;;12.82;37.32
29197;BME280;62796;42.654;23.316;2023-05-03T01:49:25;94863.53;;;12.80;37.27
29197;BME280;62796;42.654;23.316;2023-05-03T01:51:51;94847.38;;;12.78;37.34
29197;BME280;62796;42.654;23.316;2023-05-03T01:54:17;94835.69;;;12.74;37.62
29197;BME280;62796;42.654;23.316;2023-05-03T01:56:42;94837.16;;;12.69;37.50
29197;BME280;62796;42.654;23.316;2023-05-03T01:59:08;94827.75;;;12.61;37.58
29197;BME280;62796;42.654;23.316;2023-05-03T02:01:34;94825.91;;;12.53;37.79
29197;BME280;62796;42.654;23.316;2023-05-03T02:03:59;94803.69;;;12.53;38.19
29197;BME280;62796;42.654;23.316;2023-05-03T02:06:25;94822.34;;;12.52;38.11
29197;BME280;62796;42.654;23.316;2023-05-03T02:08:51;94810.44;;;12.46;37.88
29197;BME280;62796;42.654;23.316;2023-05-03T02:11:16;94822.53;;;12.43;37.87
29197;BME280;62796;42.654;23.316;2023-05-03T02:13:42;94812.69;;;12.42;37.97
29197;BME280;62796;42.654;23.316;2023-05-03T02:16:07;94808.03;;;12.34;38.58
29197;BME280;62796;42.654;23.316;2023-05-03T02:18:34;94793.56;;;12.24;38.67
29197;BME280;62796;42.654;23.316;2023-05-03T02:21:00;94794.09;;;12.28;38.59
29197;BME280;62796;42.654;23.316;2023-05-03T02:23:25;94796.19;;;12.33;38.50
29197;BME280;62796;42.654;23.316;2023-05-03T02:25:50;94795.72;;;12.40;38.44
29197;BME280;62796;42.654;23.316;2023-05-03T02:28:16;94789.19;;;12.43;38.18
29197;BME280;62796;42.654;23.316;2023-05-03T02:30:41;94793.50;;;12.44;38.60
29197;BME280;62796;42.654;23.316;2023-05-03T02:33:07;94779.06;;;12.40;38.64
29197;BME280;62796;42.654;23.316;2023-05-03T02:35:32;94780.59;;;12.41;38.60
29197;BME280;62796;42.654;23.316;2023-05-03T02:37:58;94780.03;;;12.37;38.52
29197;BME280;62796;42.654;23.316;2023-05-03T02:40:24;94790.16;;;12.40;38.65
29197;BME280;62796;42.654;23.316;2023-05-03T02:42:50;94798.41;;;12.29;39.01
29197;BME280;62796;42.654;23.316;2023-05-03T02:45:16;94797.44;;;12.32;38.94
29197;BME280;62796;42.654;23.316;2023-05-03T02:47:41;94800.09;;;12.21;39.34
29197;BME280;62796;42.654;23.316;2023-05-03T02:50:07;94809.69;;;12.20;39.33
29197;BME280;62796;42.654;23.316;2023-05-03T02:52:32;94796.78;;;12.17;39.16
29197;BME280;62796;42.654;23.316;2023-05-03T02:54:58;94799.97;;;12.10;39.14
29197;BME280;62796;42.654;23.316;2023-05-03T02:57:23;94801.91;;;12.04;39.29
29197;BME280;62796;42.654;23.316;2023-05-03T02:59:48;94806.50;;;12.07;39.25
29197;BME280;62796;42.654;23.316;2023-05-03T03:02:14;94814.34;;;12.08;39.12
29197;BME280;62796;42.654;23.316;2023-05-03T03:04:39;94817.19;;;12.14;39.21
29197;BME280;62796;42.654;23.316;2023-05-03T03:07:05;94815.13;;;12.09;39.29
29197;BME280;62796;42.654;23.316;2023-05-03T03:09:30;94800.53;;;12.14;39.17
29197;BME280;62796;42.654;23.316;2023-05-03T03:11:56;94802.31;;;12.17;39.39
29197;BME280;62796;42.654;23.316;2023-05-03T03:14:21;94823.75;;;12.16;39.41
29197;BME280;62796;42.654;23.316;2023-05-03T03:16:50;94800.53;;;12.14;39.52
29197;BME280;62796;42.654;23.316;2023-05-03T03:19:16;94793.44;;;12.13;39.32
29197;BME280;62796;42.654;23.316;2023-05-03T03:21:41;94804.88;;;12.20;39.36
29197;BME280;62796;42.654;23.316;2023-05-03T03:24:07;94797.03;;;12.19;39.23
29197;BME280;62796;42.654;23.316;2023-05-03T03:26:32;94793.00;;;12.20;39.35
29197;BME280;62796;42.654;23.316;2023-05-03T03:28:58;94809.06;;;12.10;39.55
29197;BME280;62796;42.654;23.316;2023-05-03T03:31:23;94808.13;;;12.19;39.52
29197;BME280;62796;42.654;23.316;2023-05-03T03:33:50;94832.66;;;12.20;39.87
29197;BME280;62796;42.654;23.316;2023-05-03T03:36:15;94837.44;;;12.20;39.49
29197;BME280;62796;42.654;23.316;2023-05-03T03:38:40;94840.78;;;12.24;39.47
29197;BME280;62796;42.654;23.316;2023-05-03T03:41:06;94827.41;;;12.28;39.50
29197;BME280;62796;42.654;23.316;2023-05-03T03:43:32;94831.53;;;12.33;39.36
29197;BME280;62796;42.654;23.316;2023-05-03T03:45:58;94852.47;;;12.34;39.27
29197;BME280;62796;42.654;23.316;2023-05-03T03:48:23;94824.94;;;12.30;38.96
29197;BME280;62796;42.654;23.316;2023-05-03T03:50:49;94833.53;;;12.32;38.67
29197;BME280;62796;42.654;23.316;2023-05-03T03:53:15;94854.50;;;12.33;39.08
29197;BME280;62796;42.654;23.316;2023-05-03T03:55:41;94845.06;;;12.25;39.27
29197;BME280;62796;42.654;23.316;2023-05-03T03:58:06;94861.41;;;12.17;38.98
29197;BME280;62796;42.654;23.316;2023-05-03T04:00:33;94871.25;;;12.18;39.19
29197;BME280;62796;42.654;23.316;2023-05-03T04:02:58;94868.19;;;12.16;39.39
29197;BME280;62796;42.654;23.316;2023-05-03T04:05:24;94864.19;;;12.17;39.41
29197;BME280;62796;42.654;23.316;2023-05-03T04:07:49;94876.53;;;12.16;39.37
29197;BME280;62796;42.654;23.316;2023-05-03T04:10:15;94888.97;;;12.21;38.88
29197;BME280;62796;42.654;23.316;2023-05-03T04:12:40;94866.50;;;12.25;39.43
29197;BME280;62796;42.654;23.316;2023-05-03T04:15:06;94873.81;;;12.22;39.15
29197;BME280;62796;42.654;23.316;2023-05-03T04:17:32;94887.44;;;12.20;39.21
29197;BME280;62796;42.654;23.316;2023-05-03T04:20:00;94888.41;;;12.17;39.59
29197;BME280;62796;42.654;23.316;2023-05-03T04:22:26;94895.84;;;12.05;39.63
29197;BME280;62796;42.654;23.316;2023-05-03T04:24:51;94904.22;;;12.11;39.98
29197;BME280;62796;42.654;23.316;2023-05-03T04:27:18;94903.53;;;12.16;39.54
29197;BME280;62796;42.654;23.316;2023-05-03T04:29:44;94916.44;;;12.19;39.46
29197;BME280;62796;42.654;23.316;2023-05-03T04:32:09;94915.25;;;12.26;39.51
29197;BME280;62796;42.654;23.316;2023-05-03T04:34:35;94912.16;;;12.18;39.34
29197;BME280;62796;42.654;23.316;2023-05-03T04:37:01;94916.16;;;12.17;40.00
29197;BME280;62796;42.654;23.316;2023-05-03T04:39:29;94914.50;;;12.25;39.99
29197;BME280;62796;42.654;23.316;2023-05-03T04:41:56;94924.34;;;12.26;39.72
29197;BME280;62796;42.654;23.316;2023-05-03T04:44:22;94922.97;;;12.36;39.63
29197;BME280;62796;42.654;23.316;2023-05-03T04:46:47;94930.03;;;12.37;39.58
29197;BME280;62796;42.654;23.316;2023-05-03T04:49:13;94931.84;;;12.40;39.50
29197;BME280;62796;42.654;23.316;2023-05-03T04:51:39;94943.97;;;12.43;39.18
29197;BME280;62796;42.654;23.316;2023-05-03T04:54:04;94941.16;;;12.37;39.78
29197;BME280;62796;42.654;23.316;2023-05-03T04:56:30;94943.25;;;12.42;39.55
29197;BME280;62796;42.654;23.316;2023-05-03T04:58:58;94949.53;;;12.43;39.73
29197;BME280;62796;42.654;23.316;2023-05-03T05:01:24;94954.69;;;12.50;39.83
29197;BME280;62796;42.654;23.316;2023-05-03T05:03:52;94972.69;;;12.54;40.30
29197;BME280;62796;42.654;23.316;2023-05-03T05:06:18;94974.06;;;12.44;41.36
29197;BME280;62796;42.654;23.316;2023-05-03T05:08:43;94974.28;;;12.41;42.09
29197;BME280;62796;42.654;23.316;2023-05-03T05:11:09;94979.97;;;12.32;42.60
29197;BME280;62796;42.654;23.316;2023-05-03T05:13:34;94969.50;;;12.41;43.21
29197;BME280;62796;42.654;23.316;2023-05-03T05:16:01;94965.88;;;12.35;43.17
29197;BME280;62796;42.654;23.316;2023-05-03T05:18:26;94971.44;;;12.35;43.10
29197;BME280;62796;42.654;23.316;2023-05-03T05:20:51;94977.41;;;12.28;43.32
29197;BME280;62796;42.654;23.316;2023-05-03T05:23:18;94978.56;;;12.21;43.38
29197;BME280;62796;42.654;23.316;2023-05-03T05:25:44;94975.31;;;12.23;43.32
29197;BME280;62796;42.654;23.316;2023-05-03T05:28:10;94981.06;;;12.19;42.70
29197;BME280;62796;42.654;23.316;2023-05-03T05:30:35;94976.28;;;12.20;43.21
29197;BME280;62796;42.654;23.316;2023-05-03T05:33:01;94982.59;;;12.20;43.20
29197;BME280;62796;42.654;23.316;2023-05-03T05:35:27;94984.13;;;12.21;43.56
29197;BME280;62796;42.654;23.316;2023-05-03T05:37:53;94986.44;;;12.23;43.03
29197;BME280;62796;42.654;23.316;2023-05-03T05:40:18;94982.41;;;12.24;43.19
29197;BME280;62796;42.654;23.316;2023-05-03T05:42:45;94982.59;;;12.20;43.21
29197;BME280;62796;42.654;23.316;2023-05-03T05:45:10;94986.22;;;12.27;43.40
29197;BME280;62796;42.654;23.316;2023-05-03T05:47:36;94991.56;;;12.30;43.69
29197;BME280;62796;42.654;23.316;2023-05-03T05:50:01;94963.94;;;12.21;43.36
29197;BME280;62796;42.654;23.316;2023-05-03T05:52:28;94978.78;;;12.18;43.35
29197;BME280;62796;42.654;23.316;2023-05-03T05:54:53;94984.34;;;12.18;43.32
29197;BME280;62796;42.654;23.316;2023-05-03T05:57:19;94974.75;;;12.19;43.82
29197;BME280;62796;42.654;23.316;2023-05-03T05:59:45;94980.31;;;12.19;43.48
29197;BME280;62796;42.654;23.316;2023-05-03T06:02:13;94987.97;;;12.24;42.76
29197;BME280;62796;42.654;23.316;2023-05-03T06:04:40;94986.16;;;12.21;43.60
29197;BME280;62796;42.654;23.316;2023-05-03T06:07:06;94980.72;;;12.12;43.75
29197;BME280;62796;42.654;23.316;2023-05-03T06:09:31;94987.97;;;12.24;43.95
29197;BME280;62796;42.654;23.316;2023-05-03T06:11:57;94987.31;;;12.35;43.76
29197;BME280;62796;42.654;23.316;2023-05-03T06:14:24;94985.47;;;12.26;43.47
29197;BME280;62796;42.654;23.316;2023-05-03T06:16:49;94988.94;;;12.21;43.84
29197;BME280;62796;42.654;23.316;2023-05-03T06:19:15;94985.94;;;12.25;44.13
29197;BME280;62796;42.654;23.316;2023-05-03T06:21:40;94983.25;;;12.30;43.47
29197;BME280;62796;42.654;23.316;2023-05-03T06:24:06;94987.31;;;12.35;44.24
29197;BME280;62796;42.654;23.316;2023-05-03T06:26:31;94975.50;;;12.40;44.29
29197;BME280;62796;42.654;23.316;2023-05-03T06:28:56;94966.00;;;12.46;44.27
29197;BME280;62796;42.654;23.316;2023-05-03T06:31:22;94962.53;;;12.51;43.91
29197;BME280;62796;42.654;23.316;2023-05-03T06:33:47;94958.69;;;12.49;44.13
29197;BME280;62796;42.654;23.316;2023-05-03T06:36:13;94965.38;;;12.57;44.29
29197;BME280;62796;42.654;23.316;2023-05-03T06:38:39;94958.50;;;12.52;44.54
29197;BME280;62796;42.654;23.316;2023-05-03T06:41:05;94965.44;;;12.62;45.14
29197;BME280;62796;42.654;23.316;2023-05-03T06:43:30;94952.94;;;12.52;44.54
29197;BME280;62796;42.654;23.316;2023-05-03T06:45:56;94942.66;;;12.58;44.19
29197;BME280;62796;42.654;23.316;2023-05-03T06:48:21;94940.84;;;12.55;44.74
29197;BME280;62796;42.654;23.316;2023-05-03T06:50:46;94929.03;;;12.60;44.80
29197;BME280;62796;42.654;23.316;2023-05-03T06:53:12;94917.16;;;12.60;44.46
29197;BME280;62796;42.654;23.316;2023-05-03T06:55:37;94898.25;;;12.38;44.58
29197;BME280;62796;42.654;23.316;2023-05-03T06:58:04;94944.06;;;12.48;44.22
29197;BME280;62796;42.654;23.316;2023-05-03T07:00:34;94936.72;;;12.45;44.29
29197;BME280;62796;42.654;23.316;2023-05-03T07:02:59;94937.75;;;12.48;44.36
29197;BME280;62796;42.654;23.316;2023-05-03T07:05:25;94935.44;;;12.46;44.66
29197;BME280;62796;42.654;23.316;2023-05-03T07:07:51;94929.72;;;12.55;44.24
29197;BME280;62796;42.654;23.316;2023-05-03T07:10:16;94925.31;;;12.43;44.49
29197;BME280;62796;42.654;23.316;2023-05-03T07:12:42;94931.63;;;12.44;44.82
29197;BME280;62796;42.654;23.316;2023-05-03T07:15:07;94936.25;;;12.52;44.43
29197;BME280;62796;42.654;23.316;2023-05-03T07:17:33;94926.97;;;12.55;44.55
29197;BME280;62796;42.654;23.316;2023-05-03T07:19:58;94928.22;;;12.54;44.48
29197;BME280;62796;42.654;23.316;2023-05-03T07:22:24;94918.19;;;12.62;44.68
29197;BME280;62796;42.654;23.316;2023-05-03T07:24:51;94911.88;;;12.62;44.41
29197;BME280;62796;42.654;23.316;2023-05-03T07:27:18;94926.09;;;12.69;44.44
29197;BME280;62796;42.654;23.316;2023-05-03T07:29:44;94926.38;;;12.71;44.57
29197;BME280;62796;42.654;23.316;2023-05-03T07:32:09;94919.72;;;12.63;44.59
29197;BME280;62796;42.654;23.316;2023-05-03T07:34:36;94914.38;;;12.60;44.83
29197;BME280;62796;42.654;23.316;2023-05-03T07:37:01;94907.63;;;12.66;44.93
29197;BME280;62796;42.654;23.316;2023-05-03T07:39:27;94920.09;;;12.76;44.92
29197;BME280;62796;42.654;23.316;2023-05-03T07:41:52;94891.38;;;12.85;44.64
29197;BME280;62796;42.654;23.316;2023-05-03T07:44:18;94917.41;;;12.88;44.73
29197;BME280;62796;42.654;23.316;2023-05-03T07:46:43;94918.25;;;12.94;44.86
29197;BME280;62796;42.654;23.316;2023-05-03T07:49:08;94929.47;;;13.05;44.68
29197;BME280;62796;42.654;23.316;2023-05-03T07:51:35;94921.81;;;13.20;44.36
29197;BME280;62796;42.654;23.316;2023-05-03T07:54:00;94953.72;;;13.30;44.55
29197;BME280;62796;42.654;23.316;2023-05-03T07:56:26;94943.34;;;13.25;44.53
29197;BME280;62796;42.654;23.316;2023-05-03T07:58:52;94944.66;;;13.35;44.38
29197;BME280;62796;42.654;23.316;2023-05-03T08:01:19;94938.44;;;13.46;44.09
29197;BME280;62796;42.654;23.316;2023-05-03T08:03:45;94950.16;;;13.55;44.05
29197;BME280;62796;42.654;23.316;2023-05-03T08:06:11;94950.84;;;13.50;44.17
29197;BME280;62796;42.654;23.316;2023-05-03T08:08:36;94939.50;;;13.54;44.27
29197;BME280;62796;42.654;23.316;2023-05-03T08:11:02;94945.38;;;13.61;44.23
29197;BME280;62796;42.654;23.316;2023-05-03T08:13:28;94956.38;;;13.76;44.20
29197;BME280;62796;42.654;23.316;2023-05-03T08:15:53;94941.72;;;13.81;44.09
29197;BME280;62796;42.654;23.316;2023-05-03T08:18:19;94942.09;;;14.00;43.92
29197;BME280;62796;42.654;23.316;2023-05-03T08:20:44;94946.22;;;14.15;43.37
29197;BME280;62796;42.654;23.316;2023-05-03T08:23:11;94956.47;;;14.35;43.31
29197;BME280;62796;42.654;23.316;2023-05-03T08:25:37;94953.50;;;14.55;42.45
29197;BME280;62796;42.654;23.316;2023-05-03T08:28:02;94959.63;;;14.70;42.89
29197;BME280;62796;42.654;23.316;2023-05-03T08:30:27;94966.00;;;14.82;42.33
29197;BME280;62796;42.654;23.316;2023-05-03T08:32:54;94954.63;;;14.96;41.92
29197;BME280;62796;42.654;23.316;2023-05-03T08:35:19;94970.16;;;15.25;41.27
29197;BME280;62796;42.654;23.316;2023-05-03T08:37:45;94959.03;;;15.59;40.86
29197;BME280;62796;42.654;23.316;2023-05-03T08:40:11;94945.56;;;15.79;40.47
29197;BME280;62796;42.654;23.316;2023-05-03T08:42:42;94931.31;;;15.99;40.21
29197;BME280;62796;42.654;23.316;2023-05-03T08:45:09;94931.41;;;16.51;39.21
29197;BME280;62796;42.654;23.316;2023-05-03T08:47:36;94946.34;;;16.65;38.85
29197;BME280;62796;42.654;23.316;2023-05-03T08:50:04;94951.72;;;17.09;38.19
29197;BME280;62796;42.654;23.316;2023-05-03T08:52:30;94940.28;;;17.43;37.16
29197;BME280;62796;42.654;23.316;2023-05-03T08:54:55;94946.59;;;17.54;36.83
29197;BME280;62796;42.654;23.316;2023-05-03T08:57:22;94958.00;;;17.62;36.60
29197;BME280;62796;42.654;23.316;2023-05-03T08:59:49;94959.28;;;17.61;36.73
29197;BME280;62796;42.654;23.316;2023-05-03T09:02:15;94955.59;;;17.72;36.62
29197;BME280;62796;42.654;23.316;2023-05-03T09:04:41;94971.03;;;17.84;36.45
29197;BME280;62796;42.654;23.316;2023-05-03T09:07:08;94959.50;;;17.93;36.20
29197;BME280;62796;42.654;23.316;2023-05-03T09:09:34;94962.25;;;17.68;36.66
29197;BME280;62796;42.654;23.316;2023-05-03T09:12:01;94949.97;;;17.42;36.98
29197;BME280;62796;42.654;23.316;2023-05-03T09:14:26;94939.72;;;17.50;37.29
29197;BME280;62796;42.654;23.316;2023-05-03T09:16:51;94940.19;;;17.54;37.15
29197;BME280;62796;42.654;23.316;2023-05-03T09:19:17;94938.72;;;17.83;36.65
29197;BME280;62796;42.654;23.316;2023-05-03T09:21:44;94942.59;;;18.04;36.28
29197;BME280;62796;42.654;23.316;2023-05-03T09:24:12;94930.25;;;18.12;36.30
29197;BME280;62796;42.654;23.316;2023-05-03T09:26:39;94929.22;;;18.15;36.02
29197;BME280;62796;42.654;23.316;2023-05-03T09:29:05;94930.25;;;17.88;36.43
29197;BME280;62796;42.654;23.316;2023-05-03T09:31:31;94938.53;;;17.99;36.20
29197;BME280;62796;42.654;23.316;2023-05-03T09:33:58;94918.75;;;17.92;36.35
29197;BME280;62796;42.654;23.316;2023-05-03T09:36:24;94916.69;;;18.16;36.59
29197;BME280;62796;42.654;23.316;2023-05-03T09:38:52;94910.66;;;18.31;35.99
29197;BME280;62796;42.654;23.316;2023-05-03T09:41:28;94904.69;;;17.97;36.87
29197;BME280;62796;42.654;23.316;2023-05-03T09:43:54;94905.81;;;18.32;36.12
29197;BME280;62796;42.654;23.316;2023-05-03T09:46:21;94899.63;;;18.63;35.75
29197;BME280;62796;42.654;23.316;2023-05-03T09:48:49;94901.06;;;18.88;35.11
29197;BME280;62796;42.654;23.316;2023-05-03T09:51:15;94904.13;;;19.41;34.21
29197;BME280;62796;42.654;23.316;2023-05-03T09:53:40;94898.19;;;19.76;33.75
29197;BME280;62796;42.654;23.316;2023-05-03T09:56:08;94895.31;;;20.08;33.74
29197;BME280;62796;42.654;23.316;2023-05-03T09:58:37;94880.63;;;20.41;33.05
29197;BME280;62796;42.654;23.316;2023-05-03T10:01:03;94887.66;;;20.48;32.17
29197;BME280;62796;42.654;23.316;2023-05-03T10:06:35;94874.22;;;20.54;32.17
29197;BME280;62796;42.654;23.316;2023-05-03T10:09:17;94889.94;;;20.36;32.86
29197;BME280;62796;42.654;23.316;2023-05-03T10:11:51;94887.66;;;20.48;32.56
29197;BME280;62796;42.654;23.316;2023-05-03T10:14:16;94885.06;;;20.50;32.09
29197;BME280;62796;42.654;23.316;2023-05-03T10:16:44;94874.44;;;20.69;31.80
29197;BME280;62796;42.654;23.316;2023-05-03T10:19:22;94871.53;;;20.95;31.88
29197;BME280;62796;42.654;23.316;2023-05-03T10:24:30;94855.75;;;20.79;31.95
29197;BME280;62796;42.654;23.316;2023-05-03T10:26:56;94844.34;;;20.64;32.39
29197;BME280;62796;42.654;23.316;2023-05-03T10:32:35;94851.53;;;20.38;32.70
29197;BME280;62796;42.654;23.316;2023-05-03T10:35:09;94843.09;;;20.38;32.90
29197;BME280;62796;42.654;23.316;2023-05-03T10:37:35;94840.34;;;20.46;33.19
29197;BME280;62796;42.654;23.316;2023-05-03T10:40:15;94840.03;;;20.50;32.91
29197;BME280;62796;42.654;23.316;2023-05-03T10:42:49;94845.00;;;20.57;32.93
29197;BME280;62796;42.654;23.316;2023-05-03T10:45:27;94836.78;;;20.59;33.11
29197;BME280;62796;42.654;23.316;2023-05-03T10:48:25;94848.34;;;20.55;33.13
29197;BME280;62796;42.654;23.316;2023-05-03T10:50:53;94843.06;;;20.52;33.15
29197;BME280;62796;42.654;23.316;2023-05-03T10:53:41;94846.09;;;20.54;33.08
29197;BME280;62796;42.654;23.316;2023-05-03T10:56:12;94848.06;;;20.32;33.18
29197;BME280;62796;42.654;23.316;2023-05-03T10:58:48;94848.72;;;20.25;33.56
29197;BME280;62796;42.654;23.316;2023-05-03T11:01:16;94846.53;;;20.18;33.96
29197;BME280;62796;42.654;23.316;2023-05-03T11:03:51;94842.41;;;20.19;33.98
29197;BME280;62796;42.654;23.316;2023-05-03T11:06:36;94844.56;;;20.13;33.62
29197;BME280;62796;42.654;23.316;2023-05-03T11:09:04;94847.19;;;20.11;33.60
29197;BME280;62796;42.654;23.316;2023-05-03T11:11:30;94850.63;;;20.04;33.51
29197;BME280;62796;42.654;23.316;2023-05-03T11:13:56;94830.75;;;20.02;33.54
29197;BME280;62796;42.654;23.316;2023-05-03T11:16:21;94827.38;;;19.91;33.52
29197;BME280;62796;42.654;23.316;2023-05-03T11:18:47;94833.75;;;19.78;34.09
29197;BME280;62796;42.654;23.316;2023-05-03T11:21:14;94830.38;;;19.53;34.34
29197;BME280;62796;42.654;23.316;2023-05-03T11:23:40;94820.97;;;19.51;34.59
29197;BME280;62796;42.654;23.316;2023-05-03T11:26:07;94817.63;;;19.52;34.87
29197;BME280;62796;42.654;23.316;2023-05-03T11:28:32;94810.38;;;19.57;34.95
29197;BME280;62796;42.654;23.316;2023-05-03T11:30:58;94818.38;;;19.53;34.94
29197;BME280;62796;42.654;23.316;2023-05-03T11:33:27;94827.47;;;19.59;35.15
29197;BME280;62796;42.654;23.316;2023-05-03T11:35:56;94821.75;;;19.64;35.14
29197;BME280;62796;42.654;23.316;2023-05-03T11:38:22;94827.28;;;19.70;35.53
29197;BME280;62796;42.654;23.316;2023-05-03T11:40:47;94824.66;;;19.72;35.15
29197;BME280;62796;42.654;23.316;2023-05-03T11:43:13;94817.97;;;20.01;34.91
29197;BME280;62796;42.654;23.316;2023-05-03T11:45:44;94811.59;;;20.40;34.13
29197;BME280;62796;42.654;23.316;2023-05-03T11:48:13;94812.66;;;20.50;34.20
29197;BME280;62796;42.654;23.316;2023-05-03T11:50:44;94791.88;;;20.53;33.82
29197;BME280;62796;42.654;23.316;2023-05-03T11:53:16;94802.59;;;20.55;33.66
29197;BME280;62796;42.654;23.316;2023-05-03T11:55:44;94805.63;;;20.57;34.41
29197;BME280;62796;42.654;23.316;2023-05-03T11:58:23;94791.09;;;20.53;34.37
29197;BME280;62796;42.654;23.316;2023-05-03T12:00:51;94784.19;;;20.54;34.46
29197;BME280;62796;42.654;23.316;2023-05-03T12:03:19;94779.00;;;20.58;34.96
29197;BME280;62796;42.654;23.316;2023-05-03T12:05:46;94767.53;;;20.76;34.76
29197;BME280;62796;42.654;23.316;2023-05-03T12:08:12;94761.16;;;20.76;34.72
29197;BME280;62796;42.654;23.316;2023-05-03T12:10:38;94780.75;;;20.81;34.61
29197;BME280;62796;42.654;23.316;2023-05-03T12:13:03;94780.22;;;20.70;34.87
29197;BME280;62796;42.654;23.316;2023-05-03T12:15:31;94780.41;;;20.51;34.71
29197;BME280;62796;42.654;23.316;2023-05-03T12:17:59;94775.59;;;20.25;35.08
29197;BME280;62796;42.654;23.316;2023-05-03T12:20:27;94783.34;;;20.19;35.33
29197;BME280;62796;42.654;23.316;2023-05-03T12:23:06;94780.34;;;20.04;35.33
29197;BME280;62796;42.654;23.316;2023-05-03T12:25:35;94773.44;;;19.79;36.06
29197;BME280;62796;42.654;23.316;2023-05-03T12:28:02;94777.75;;;19.41;36.84
29197;BME280;62796;42.654;23.316;2023-05-03T12:30:28;94767.09;;;19.33;36.83
29197;BME280;62796;42.654;23.316;2023-05-03T12:32:54;94783.28;;;19.14;37.21
29197;BME280;62796;42.654;23.316;2023-05-03T12:35:20;94781.50;;;18.98;37.48
29197;BME280;62796;42.654;23.316;2023-05-03T12:37:47;94772.09;;;18.96;37.67
29197;BME280;62796;42.654;23.316;2023-05-03T12:40:14;94781.22;;;18.83;37.80
29197;BME280;62796;42.654;23.316;2023-05-03T12:42:40;94786.34;;;18.66;38.47
29197;BME280;62796;42.654;23.316;2023-05-03T12:45:07;94781.94;;;18.52;38.76
29197;BME280;62796;42.654;23.316;2023-05-03T12:47:33;94785.72;;;18.36;39.18
29197;BME280;62796;42.654;23.316;2023-05-03T12:49:59;94794.59;;;18.21;39.76
29197;BME280;62796;42.654;23.316;2023-05-03T12:52:26;94776.00;;;17.99;40.12
29197;BME280;62796;42.654;23.316;2023-05-03T12:54:52;94786.03;;;17.89;40.48
29197;BME280;62796;42.654;23.316;2023-05-03T12:57:17;94774.97;;;17.78;40.70
29197;BME280;62796;42.654;23.316;2023-05-03T12:59:43;94784.28;;;17.67;40.94
29197;BME280;62796;42.654;23.316;2023-05-03T13:02:09;94769.34;;;17.54;41.58
29197;BME280;62796;42.654;23.316;2023-05-03T13:04:35;94771.69;;;17.26;43.17
29197;BME280;62796;42.654;23.316;2023-05-03T13:07:01;94775.81;;;17.19;43.02